createdAt,value
2022-10-09T00:01:07.773Z,75.11
2022-10-09T00:03:36.212Z,75.11
2022-10-09T00:06:03.859Z,75.05
2022-10-09T00:08:31.018Z,75.00
2022-10-09T00:10:57.838Z,74.93
2022-10-09T00:13:24.705Z,74.88
2022-10-09T00:15:51.633Z,74.85
2022-10-09T00:18:19.123Z,74.72
2022-10-09T00:20:47.162Z,74.76
2022-10-09T00:23:17.349Z,74.80
2022-10-09T00:25:58.034Z,74.79
2022-10-09T00:28:26.722Z,74.77
2022-10-09T00:30:54.615Z,74.76
2022-10-09T00:33:21.843Z,74.67
2022-10-09T00:35:49.227Z,74.62
2022-10-09T00:38:16.142Z,74.60
2022-10-09T00:40:43.399Z,74.51
2022-10-09T00:43:19.257Z,74.49
2022-10-09T00:45:55.851Z,74.45
2022-10-09T00:48:23.625Z,74.28
2022-10-09T00:50:54.588Z,74.23
2022-10-09T00:53:24.100Z,74.10
2022-10-09T00:55:51.319Z,74.06
2022-10-09T00:58:19.395Z,73.90
2022-10-09T01:00:46.207Z,73.84
2022-10-09T01:03:13.054Z,73.87
2022-10-09T01:05:39.752Z,73.76
2022-10-09T01:08:24.766Z,73.70
2022-10-09T01:11:06.757Z,73.66
2022-10-09T01:13:43.021Z,73.55
2022-10-09T01:16:24.032Z,73.46
2022-10-09T01:19:06.366Z,73.38
2022-10-09T01:21:43.762Z,73.34
2022-10-09T01:24:19.374Z,73.28
2022-10-09T01:27:04.735Z,73.22
2022-10-09T01:29:40.932Z,73.17
2022-10-09T01:32:11.236Z,73.06
2022-10-09T01:34:39.996Z,72.97
2022-10-09T01:37:09.089Z,72.95
2022-10-09T01:39:37.311Z,72.92
2022-10-09T01:42:04.827Z,72.76
2022-10-09T01:44:33.183Z,72.75
2022-10-09T01:47:00.951Z,72.68
2022-10-09T01:49:49.694Z,72.60
2022-10-09T01:52:27.812Z,72.50
2022-10-09T01:55:25.301Z,72.38
2022-10-09T01:57:57.846Z,72.30
2022-10-09T02:00:25.595Z,72.15
2022-10-09T02:02:54.978Z,72.01
2022-10-09T02:05:26.282Z,71.98
2022-10-09T02:07:55.259Z,71.98
2022-10-09T02:10:23.473Z,71.99
2022-10-09T02:12:55.142Z,72.01
2022-10-09T02:15:27.895Z,72.05
2022-10-09T02:18:02.813Z,72.08
2022-10-09T02:20:34.026Z,72.09
2022-10-09T02:23:04.690Z,72.05
2022-10-09T02:25:31.707Z,72.03
2022-10-09T02:27:58.570Z,72.04
2022-10-09T02:30:30.431Z,72.04
2022-10-09T02:32:57.563Z,72.02
2022-10-09T02:35:24.316Z,71.99
2022-10-09T02:37:51.060Z,71.96
2022-10-09T02:40:17.762Z,71.90
2022-10-09T02:42:44.517Z,71.94
2022-10-09T02:45:11.334Z,71.89
2022-10-09T02:47:38.040Z,71.84
2022-10-09T02:50:05.247Z,71.81
2022-10-09T02:52:31.966Z,71.66
2022-10-09T02:54:58.765Z,71.59
2022-10-09T02:57:25.467Z,71.62
2022-10-09T02:59:52.183Z,71.58
2022-10-09T03:02:19.069Z,71.54
2022-10-09T03:04:45.966Z,71.56
2022-10-09T03:07:12.695Z,71.54
2022-10-09T03:09:39.408Z,71.49
2022-10-09T03:12:06.221Z,71.39
2022-10-09T03:14:32.983Z,71.28
2022-10-09T03:16:59.740Z,71.19
2022-10-09T03:19:26.543Z,71.12
2022-10-09T03:21:53.289Z,71.04
2022-10-09T03:24:20.115Z,71.05
2022-10-09T03:26:46.864Z,71.00
2022-10-09T03:29:13.549Z,70.93
2022-10-09T03:31:51.857Z,70.85
2022-10-09T03:34:19.411Z,70.84
2022-10-09T03:36:46.371Z,70.85
2022-10-09T03:39:13.051Z,70.70
2022-10-09T03:41:39.812Z,70.75
2022-10-09T03:44:06.678Z,70.67
2022-10-09T03:46:33.509Z,70.62
2022-10-09T03:49:00.268Z,70.56
2022-10-09T03:51:27.622Z,70.47
2022-10-09T03:53:54.326Z,70.38
2022-10-09T03:56:21.080Z,70.25
2022-10-09T03:58:47.808Z,70.33
2022-10-09T04:01:14.604Z,70.36
2022-10-09T04:03:41.415Z,70.18
2022-10-09T04:06:08.120Z,70.10
2022-10-09T04:08:35.421Z,69.97
2022-10-09T04:11:02.235Z,69.86
2022-10-09T04:13:29.280Z,69.87
2022-10-09T04:15:56.603Z,69.74
2022-10-09T04:18:23.771Z,69.68
2022-10-09T04:20:56.021Z,69.71
2022-10-09T04:23:25.348Z,69.72
2022-10-09T04:25:58.324Z,69.64
2022-10-09T04:28:29.539Z,69.50
2022-10-09T04:30:59.689Z,69.48
2022-10-09T04:33:27.044Z,69.35
2022-10-09T04:35:55.388Z,69.52
2022-10-09T04:38:23.143Z,69.48
2022-10-09T04:41:01.070Z,69.49
2022-10-09T04:43:28.305Z,69.57
2022-10-09T04:45:55.485Z,69.48
2022-10-09T04:48:22.862Z,69.58
2022-10-09T04:50:49.623Z,69.51
2022-10-09T04:53:16.722Z,69.60
2022-10-09T04:55:44.564Z,69.64
2022-10-09T04:58:13.077Z,69.64
2022-10-09T05:00:44.973Z,69.57
2022-10-09T05:03:12.416Z,69.62
2022-10-09T05:05:39.216Z,69.66
2022-10-09T05:08:06.501Z,69.73
2022-10-09T05:10:33.392Z,69.72
2022-10-09T05:13:00.225Z,69.82
2022-10-09T05:15:27.356Z,69.82
2022-10-09T05:17:54.246Z,69.87
2022-10-09T05:20:21.153Z,69.82
2022-10-09T05:22:48.385Z,69.52
2022-10-09T05:25:15.609Z,69.49
2022-10-09T05:27:42.424Z,69.54
2022-10-09T05:30:09.938Z,69.22
2022-10-09T05:32:36.791Z,69.28
2022-10-09T05:35:04.461Z,69.33
2022-10-09T05:37:31.415Z,69.00
2022-10-09T05:39:58.184Z,69.10
2022-10-09T05:42:24.983Z,69.16
2022-10-09T05:44:51.740Z,69.02
2022-10-09T05:47:19.888Z,69.08
2022-10-09T05:49:46.856Z,69.05
2022-10-09T05:52:13.707Z,68.92
2022-10-09T05:54:42.037Z,68.91
2022-10-09T05:57:09.748Z,68.80
2022-10-09T05:59:36.497Z,69.00
2022-10-09T06:02:03.850Z,68.98
2022-10-09T06:04:30.712Z,69.01
2022-10-09T06:06:57.552Z,69.06
2022-10-09T06:09:25.702Z,69.01
2022-10-09T06:11:54.425Z,68.95
2022-10-09T06:14:22.355Z,68.76
2022-10-09T06:16:49.897Z,68.80
2022-10-09T06:19:19.323Z,68.42
2022-10-09T06:21:47.258Z,68.42
2022-10-09T06:24:28.695Z,68.36
2022-10-09T06:26:59.339Z,68.28
2022-10-09T06:29:26.570Z,68.10
2022-10-09T06:31:53.884Z,67.92
2022-10-09T06:34:20.760Z,67.79
2022-10-09T06:36:47.786Z,67.85
2022-10-09T06:39:14.604Z,67.72
2022-10-09T06:41:41.342Z,67.55
2022-10-09T06:44:16.285Z,67.37
2022-10-09T06:46:45.291Z,67.12
2022-10-09T06:49:12.470Z,67.02
2022-10-09T06:51:39.490Z,67.05
2022-10-09T06:54:12.057Z,66.91
2022-10-09T06:56:39.043Z,66.92
2022-10-09T06:59:07.402Z,66.80
2022-10-09T07:01:34.694Z,66.74
2022-10-09T07:04:07.055Z,66.79
2022-10-09T07:06:38.396Z,66.81
2022-10-09T07:09:08.462Z,66.73
2022-10-09T07:11:38.479Z,66.46
2022-10-09T07:14:07.984Z,66.26
2022-10-09T07:16:37.165Z,66.16
2022-10-09T07:19:07.702Z,66.07
2022-10-09T07:21:35.984Z,65.87
2022-10-09T07:24:04.071Z,65.87
2022-10-09T07:26:33.164Z,65.71
2022-10-09T07:29:00.913Z,65.68
2022-10-09T07:31:27.837Z,65.58
2022-10-09T07:33:56.922Z,65.53
2022-10-09T07:36:24.645Z,65.52
2022-10-09T07:38:53.213Z,65.40
2022-10-09T07:41:21.427Z,65.29
2022-10-09T07:43:48.380Z,65.26
2022-10-09T07:46:18.073Z,65.33
2022-10-09T07:48:45.925Z,65.23
2022-10-09T07:51:24.349Z,65.12
2022-10-09T07:53:51.687Z,65.10
2022-10-09T07:56:29.088Z,65.21
2022-10-09T07:58:58.055Z,65.21
2022-10-09T08:01:26.165Z,65.13
2022-10-09T08:03:52.962Z,65.10
2022-10-09T08:06:20.217Z,65.07
2022-10-09T08:08:54.940Z,65.11
2022-10-09T08:11:23.172Z,65.00
2022-10-09T08:13:51.240Z,65.06
2022-10-09T08:16:19.488Z,64.99
2022-10-09T08:18:46.923Z,64.93
2022-10-09T08:21:19.145Z,65.04
2022-10-09T08:23:46.634Z,65.00
2022-10-09T08:26:18.756Z,64.86
2022-10-09T08:28:54.498Z,64.87
2022-10-09T08:31:22.326Z,64.86
2022-10-09T08:33:53.578Z,64.84
2022-10-09T08:36:21.591Z,64.87
2022-10-09T08:38:49.198Z,64.91
2022-10-09T08:41:29.484Z,64.89
2022-10-09T08:44:10.442Z,64.92
2022-10-09T08:47:14.101Z,64.97
2022-10-09T08:49:49.320Z,65.00
2022-10-09T08:52:49.087Z,64.99
2022-10-09T08:55:24.179Z,64.99
2022-10-09T08:57:54.012Z,64.94
2022-10-09T09:00:29.348Z,64.94
2022-10-09T09:03:29.198Z,64.94
2022-10-09T09:06:17.875Z,64.83
2022-10-09T09:08:55.314Z,64.83
2022-10-09T09:11:40.937Z,64.84
2022-10-09T09:14:29.418Z,64.74
2022-10-09T09:17:12.533Z,64.69
2022-10-09T09:20:04.531Z,64.58
2022-10-09T09:22:32.684Z,64.57
2022-10-09T09:25:01.105Z,64.40
2022-10-09T09:27:34.788Z,64.29
2022-10-09T09:30:13.423Z,64.15
2022-10-09T09:32:43.637Z,64.08
2022-10-09T09:35:27.216Z,63.99
2022-10-09T09:37:54.249Z,63.89
2022-10-09T09:40:38.468Z,63.74
2022-10-09T09:43:16.852Z,63.60
2022-10-09T09:45:45.324Z,63.35
2022-10-09T09:48:36.569Z,63.23
2022-10-09T09:51:29.368Z,63.14
2022-10-09T09:54:18.566Z,63.11
2022-10-09T09:59:33.141Z,62.83
2022-10-09T10:02:17.980Z,62.64
2022-10-09T10:04:52.606Z,62.36
2022-10-09T10:07:37.129Z,62.06
2022-10-09T10:10:09.710Z,61.87
2022-10-09T10:13:06.924Z,61.75
2022-10-09T10:15:34.943Z,61.73
2022-10-09T10:18:23.340Z,61.81
2022-10-09T10:20:54.458Z,61.61
2022-10-09T10:23:36.453Z,61.29
2022-10-09T10:26:41.525Z,61.33
2022-10-09T10:29:14.272Z,61.12
2022-10-09T10:32:16.175Z,60.95
2022-10-09T10:34:53.828Z,61.05
2022-10-09T10:37:29.701Z,61.02
2022-10-09T10:40:15.086Z,60.99
2022-10-09T10:42:47.684Z,60.81
2022-10-09T10:45:14.402Z,60.62
2022-10-09T10:47:47.343Z,60.65
2022-10-09T10:50:16.354Z,60.56
2022-10-09T10:52:49.458Z,60.37
2022-10-09T10:56:04.935Z,60.11
2022-10-09T10:58:59.198Z,59.85
2022-10-09T11:02:10.264Z,59.68
2022-10-09T11:04:54.030Z,59.20
2022-10-09T11:07:42.876Z,59.23
2022-10-09T11:10:34.473Z,59.49
2022-10-09T11:13:12.443Z,59.70
2022-10-09T11:16:00.906Z,59.55
2022-10-09T11:18:52.242Z,59.19
2022-10-09T11:22:00.675Z,58.82
2022-10-09T11:24:48.136Z,58.58
2022-10-09T11:27:20.812Z,58.44
2022-10-09T11:29:57.302Z,58.75
2022-10-09T11:32:32.591Z,58.70
2022-10-09T11:35:12.948Z,58.73
2022-10-09T11:37:43.576Z,58.71
2022-10-09T11:40:20.618Z,58.85
2022-10-09T11:43:21.378Z,58.75
2022-10-09T11:45:55.202Z,58.30
2022-10-09T11:48:42.674Z,58.52
2022-10-09T11:51:23.785Z,58.49
2022-10-09T11:53:52.510Z,58.53
2022-10-09T11:56:27.730Z,58.21
2022-10-09T11:59:06.419Z,58.16
2022-10-09T12:01:39.808Z,58.04
2022-10-09T12:04:27.805Z,57.71
2022-10-09T12:07:09.418Z,57.97
2022-10-09T12:09:42.649Z,57.99
2022-10-09T12:12:23.029Z,58.02
2022-10-09T12:14:52.043Z,58.41
2022-10-09T12:17:21.895Z,58.28
2022-10-09T12:19:57.377Z,58.04
2022-10-09T12:22:32.044Z,57.88
2022-10-09T12:25:06.659Z,57.66
2022-10-09T12:27:43.421Z,57.63
2022-10-09T12:30:14.240Z,57.55
2022-10-09T12:33:25.965Z,57.56
2022-10-09T12:36:03.854Z,57.37
2022-10-09T12:38:32.014Z,57.29
2022-10-09T12:41:02.876Z,56.94
2022-10-09T12:43:32.513Z,56.84
2022-10-09T12:46:00.595Z,57.03
2022-10-09T12:48:29.108Z,57.16
2022-10-09T12:50:56.204Z,57.28
2022-10-09T12:53:27.994Z,57.08
2022-10-09T12:55:59.298Z,57.04
2022-10-09T12:58:31.247Z,56.97
2022-10-09T13:01:01.404Z,56.81
2022-10-09T13:03:57.675Z,56.64
2022-10-09T13:06:38.074Z,56.84
2022-10-09T13:09:07.951Z,56.48
2022-10-09T13:11:40.955Z,56.48
2022-10-09T13:14:24.535Z,56.56
2022-10-09T13:16:51.810Z,56.80
2022-10-09T13:19:27.609Z,57.04
2022-10-09T13:22:06.421Z,57.05
2022-10-09T13:24:35.793Z,56.78
2022-10-09T13:27:04.139Z,56.87
2022-10-09T13:29:31.629Z,56.89
2022-10-09T13:31:58.628Z,57.08
2022-10-09T13:34:29.111Z,57.22
2022-10-09T13:36:56.650Z,57.58
2022-10-09T13:39:23.393Z,57.51
2022-10-09T13:41:55.487Z,57.41
2022-10-09T13:44:22.291Z,57.36
2022-10-09T13:46:49.188Z,57.53
2022-10-09T13:49:16.071Z,57.35
2022-10-09T13:51:42.894Z,57.45
2022-10-09T13:54:12.285Z,57.76
2022-10-09T13:56:39.029Z,57.59
2022-10-09T13:59:05.875Z,57.68
2022-10-09T14:01:32.772Z,57.75
2022-10-09T14:03:59.623Z,57.88
2022-10-09T14:06:26.379Z,57.92
2022-10-09T14:08:53.317Z,57.99
2022-10-09T14:11:20.216Z,58.00
2022-10-09T14:13:46.926Z,58.20
2022-10-09T14:16:13.823Z,58.22
2022-10-09T14:18:40.578Z,58.33
2022-10-09T14:21:15.046Z,58.40
2022-10-09T14:23:42.634Z,58.44
2022-10-09T14:26:10.073Z,58.43
2022-10-09T14:28:37.150Z,58.52
2022-10-09T14:31:07.687Z,58.48
2022-10-09T14:33:34.574Z,58.66
2022-10-09T14:36:20.215Z,58.71
2022-10-09T14:38:48.546Z,58.76
2022-10-09T14:41:18.047Z,58.69
2022-10-09T14:43:45.656Z,58.68
2022-10-09T14:46:17.841Z,58.70
2022-10-09T14:48:45.758Z,58.60
2022-10-09T14:51:18.607Z,58.72
2022-10-09T14:53:46.696Z,58.70
2022-10-09T14:56:16.567Z,58.85
2022-10-09T14:58:43.820Z,58.74
2022-10-09T15:01:15.296Z,58.75
2022-10-09T15:03:42.625Z,58.62
2022-10-09T15:06:11.156Z,58.57
2022-10-09T15:08:40.332Z,58.51
2022-10-09T15:11:07.692Z,58.58
2022-10-09T15:13:35.816Z,58.47
2022-10-09T15:16:08.258Z,58.53
2022-10-09T15:18:35.728Z,58.69
2022-10-09T15:21:02.688Z,58.78
2022-10-09T15:23:30.140Z,58.81
2022-10-09T15:25:59.241Z,58.90
2022-10-09T15:28:26.337Z,59.00
2022-10-09T15:31:00.493Z,59.06
2022-10-09T15:33:27.466Z,59.12
2022-10-09T15:35:54.355Z,59.27
2022-10-09T15:38:23.160Z,59.33
2022-10-09T15:40:51.843Z,59.38
2022-10-09T15:43:21.052Z,59.55
2022-10-09T15:45:48.734Z,59.69
2022-10-09T15:48:21.440Z,59.73
2022-10-09T15:50:51.572Z,59.89
2022-10-09T15:53:20.712Z,59.96
2022-10-09T15:55:49.139Z,60.04
2022-10-09T15:58:17.009Z,60.11
2022-10-09T16:00:49.712Z,60.32
2022-10-09T16:03:18.081Z,60.35
2022-10-09T16:05:48.838Z,60.41
2022-10-09T16:08:17.626Z,60.63
2022-10-09T16:10:49.424Z,60.69
2022-10-09T16:13:16.810Z,60.81
2022-10-09T16:15:47.828Z,60.92
2022-10-09T16:18:16.686Z,61.19
2022-10-09T16:20:44.001Z,61.29
2022-10-09T16:23:11.613Z,61.41
2022-10-09T16:25:39.665Z,61.54
2022-10-09T16:28:09.428Z,61.81
2022-10-09T16:30:41.318Z,61.89
2022-10-09T16:33:12.438Z,62.12
2022-10-09T16:35:39.709Z,62.23
2022-10-09T16:38:06.499Z,62.33
2022-10-09T16:41:00.449Z,62.40
2022-10-09T16:43:20.488Z,62.67
2022-10-09T16:45:47.412Z,62.78
2022-10-09T16:48:14.173Z,62.92
2022-10-09T16:50:42.460Z,63.22
2022-10-09T16:53:09.810Z,63.28
2022-10-09T16:55:36.722Z,63.70
2022-10-09T16:58:03.559Z,63.69
2022-10-09T17:00:30.636Z,63.83
2022-10-09T17:02:57.444Z,63.83
2022-10-09T17:05:25.616Z,64.10
2022-10-09T17:07:52.899Z,63.97
2022-10-09T17:10:20.029Z,64.11
2022-10-09T17:12:46.790Z,64.39
2022-10-09T17:15:13.687Z,64.58
2022-10-09T17:17:41.020Z,64.71
2022-10-09T17:20:08.246Z,64.73
2022-10-09T17:22:35.322Z,64.69
2022-10-09T17:25:02.534Z,64.72
2022-10-09T17:27:29.338Z,64.70
2022-10-09T17:29:56.135Z,64.89
2022-10-09T17:32:23.135Z,64.93
2022-10-09T17:34:50.952Z,65.05
2022-10-09T17:37:17.801Z,65.06
2022-10-09T17:39:48.542Z,65.09
2022-10-09T17:42:18.097Z,65.16
2022-10-09T17:44:45.197Z,65.25
2022-10-09T17:47:11.979Z,65.34
2022-10-09T17:49:38.799Z,65.74
2022-10-09T17:52:05.626Z,65.59
2022-10-09T17:54:32.426Z,65.54
2022-10-09T17:57:00.708Z,65.47
2022-10-09T17:59:27.987Z,65.60
2022-10-09T18:01:54.868Z,65.81
2022-10-09T18:04:22.588Z,65.72
2022-10-09T18:06:49.910Z,65.97
2022-10-09T18:09:17.209Z,65.92
2022-10-09T18:11:44.386Z,66.06
2022-10-09T18:14:12.294Z,65.84
2022-10-09T18:16:40.828Z,66.02
2022-10-09T18:19:12.766Z,66.19
2022-10-09T18:21:42.969Z,66.16
2022-10-09T18:24:10.831Z,66.15
2022-10-09T18:26:38.074Z,66.25
2022-10-09T18:29:05.607Z,66.35
2022-10-09T18:31:32.900Z,66.39
2022-10-09T18:34:00.782Z,66.56
2022-10-09T18:36:31.858Z,66.50
2022-10-09T18:39:03.079Z,66.47
2022-10-09T18:41:30.618Z,66.59
2022-10-09T18:44:00.626Z,66.67
2022-10-09T18:46:42.066Z,66.75
2022-10-09T18:49:12.676Z,66.66
2022-10-09T18:51:42.462Z,66.67
2022-10-09T18:54:15.716Z,66.42
2022-10-09T18:56:46.679Z,66.78
2022-10-09T18:59:17.206Z,66.85
2022-10-09T19:01:44.715Z,66.93
2022-10-09T19:04:13.510Z,67.06
2022-10-09T19:06:40.789Z,67.17
2022-10-09T19:09:07.989Z,67.03
2022-10-09T19:11:35.311Z,67.03
2022-10-09T19:14:02.541Z,67.13
2022-10-09T19:16:32.103Z,67.29
2022-10-09T19:18:59.758Z,67.57
2022-10-09T19:21:26.790Z,67.65
2022-10-09T19:23:54.441Z,67.50
2022-10-09T19:26:22.410Z,67.64
2022-10-09T19:28:49.160Z,67.75
2022-10-09T19:31:15.963Z,67.87
2022-10-09T19:33:43.223Z,67.88
2022-10-09T19:36:12.893Z,67.72
2022-10-09T19:38:40.300Z,67.89
2022-10-09T19:41:12.878Z,67.49
2022-10-09T19:43:40.146Z,67.82
2022-10-09T19:46:10.310Z,67.84
2022-10-09T19:48:38.053Z,67.77
2022-10-09T19:51:16.742Z,67.85
2022-10-09T19:53:43.972Z,68.02
2022-10-09T19:56:13.458Z,68.27
2022-10-09T19:58:42.335Z,68.12
2022-10-09T20:01:14.323Z,68.24
2022-10-09T20:03:42.062Z,68.35
2022-10-09T20:06:10.386Z,68.28
2022-10-09T20:08:38.630Z,68.03
2022-10-09T20:11:06.510Z,68.34
2022-10-09T20:13:35.475Z,68.35
2022-10-09T20:16:04.645Z,68.07
2022-10-09T20:18:31.801Z,68.22
2022-10-09T20:20:58.911Z,68.43
2022-10-09T20:23:26.505Z,68.40
2022-10-09T20:26:03.865Z,68.65
2022-10-09T20:28:35.863Z,68.85
2022-10-09T20:31:07.959Z,68.67
2022-10-09T20:33:36.167Z,68.64
2022-10-09T20:36:04.747Z,68.79
2022-10-09T20:38:31.661Z,68.96
2022-10-09T20:41:03.952Z,69.06
2022-10-09T20:43:30.707Z,68.93
2022-10-09T20:45:57.478Z,69.06
2022-10-09T20:48:24.223Z,69.04
2022-10-09T20:50:50.940Z,68.95
2022-10-09T20:53:17.642Z,68.86
2022-10-09T20:55:44.406Z,68.74
2022-10-09T20:58:11.246Z,69.05
2022-10-09T21:00:41.981Z,69.06
2022-10-09T21:03:12.328Z,68.93
2022-10-09T21:05:43.380Z,69.09
2022-10-09T21:08:10.657Z,69.34
2022-10-09T21:10:48.812Z,69.11
2022-10-09T21:13:16.245Z,69.31
2022-10-09T21:15:44.804Z,69.34
2022-10-09T21:18:12.046Z,69.24
2022-10-09T21:20:40.406Z,69.19
2022-10-09T21:23:07.660Z,69.11
2022-10-09T21:25:34.656Z,69.14
2022-10-09T21:28:01.486Z,69.61
2022-10-09T21:30:28.922Z,69.62
2022-10-09T21:32:56.491Z,69.52
2022-10-09T21:35:23.819Z,69.70
2022-10-09T21:37:50.831Z,69.46
2022-10-09T21:40:18.065Z,69.41
2022-10-09T21:42:44.787Z,69.50
2022-10-09T21:45:13.013Z,69.52
2022-10-09T21:47:39.767Z,69.59
2022-10-09T21:50:07.281Z,69.96
2022-10-09T21:52:34.054Z,69.73
2022-10-09T21:55:00.790Z,69.70
2022-10-09T21:57:27.514Z,69.90
2022-10-09T21:59:54.257Z,69.79
2022-10-09T22:02:20.947Z,69.60
2022-10-09T22:04:47.876Z,69.86
2022-10-09T22:07:14.592Z,69.87
2022-10-09T22:09:41.339Z,70.04
2022-10-09T22:12:08.075Z,70.01
2022-10-09T22:14:34.801Z,70.17
2022-10-09T22:17:01.603Z,70.01
2022-10-09T22:19:28.298Z,70.08
2022-10-09T22:21:55.044Z,70.11
2022-10-09T22:24:25.861Z,70.04
2022-10-09T22:26:56.980Z,69.81
2022-10-09T22:29:25.125Z,69.99
2022-10-09T22:31:51.932Z,70.07
2022-10-09T22:34:19.138Z,69.99
2022-10-09T22:36:46.630Z,69.91
2022-10-09T22:39:13.399Z,70.02
2022-10-09T22:41:40.532Z,70.02
2022-10-09T22:44:08.760Z,70.04
2022-10-09T22:46:38.871Z,70.25
2022-10-09T22:49:07.654Z,70.04
2022-10-09T22:51:34.831Z,70.06
2022-10-09T22:54:01.884Z,70.02
2022-10-09T22:56:32.710Z,70.07
2022-10-09T22:58:59.539Z,69.96
2022-10-09T23:01:31.626Z,70.09
2022-10-09T23:04:01.021Z,70.25
2022-10-09T23:06:27.919Z,70.24
2022-10-09T23:08:54.682Z,69.92
2022-10-09T23:11:22.962Z,70.23
2022-10-09T23:13:59.561Z,70.05
2022-10-09T23:16:28.343Z,70.12
2022-10-09T23:18:57.807Z,70.12
2022-10-09T23:21:25.363Z,70.31
2022-10-09T23:23:52.872Z,70.01
2022-10-09T23:26:24.685Z,70.21
2022-10-09T23:28:54.371Z,70.44
2022-10-09T23:31:21.890Z,70.18
2022-10-09T23:33:48.917Z,70.26
2022-10-09T23:36:18.968Z,70.38
2022-10-09T23:38:46.142Z,69.97
2022-10-09T23:41:15.754Z,70.30
2022-10-09T23:43:44.185Z,70.26
2022-10-09T23:46:14.003Z,70.32
2022-10-09T23:48:40.952Z,70.11
2022-10-09T23:51:08.461Z,70.31
2022-10-09T23:53:35.268Z,70.36
2022-10-09T23:56:05.851Z,70.21
2022-10-09T23:58:32.608Z,70.40
